Time;durP1;ratioP1;P1;durP2;ratioP2;P2;SDS_P1;SDS_P2;PMS_P1;PMS_P2;Temp;Humidity;BMP_temperature;BMP_pressure;BME280_temperature;BME280_humidity;BME280_pressure;Samples;Min_cycle;Max_cycle;Signal;HPM_P1;HPM_P2
2022/03/23 00:01:53;;;;;;;37.63;21.08;;;8.70;99.90;;;;;;4870729;29;20067;-83
2022/03/23 00:04:19;;;;;;;43.35;22.17;;;8.70;99.90;;;;;;4900625;29;20059;-83
2022/03/23 00:06:45;;;;;;;;;;;8.70;99.90;;;;;;4893167;29;20044;-84
2022/03/23 00:09:12;;;;;;;39.20;20.27;;;8.60;99.90;;;;;;4897090;29;20361;-83
2022/03/23 00:11:38;;;;;;;37.80;19.75;;;8.50;99.90;;;;;;4887791;29;20425;-83
2022/03/23 00:14:06;;;;;;;39.63;21.20;;;8.60;99.90;;;;;;4905159;29;20066;-82
2022/03/23 00:16:35;;;;;;;37.08;20.45;;;8.40;99.90;;;;;;4890357;29;20509;-83
2022/03/23 00:19:01;;;;;;;37.83;19.85;;;8.30;99.90;;;;;;4880456;29;20474;-84
2022/03/23 00:21:27;;;;;;;41.45;21.20;;;8.70;99.90;;;;;;4871605;29;20048;-84
2022/03/23 00:23:54;;;;;;;41.95;21.05;;;8.30;99.90;;;;;;4908649;29;20049;-83
2022/03/23 00:26:20;;;;;;;38.67;20.48;;;8.10;99.90;;;;;;4860743;29;20052;-84
2022/03/23 00:28:45;;;;;;;38.70;21.27;;;8.10;99.90;;;;;;4899332;29;20051;-85
2022/03/23 00:31:11;;;;;;;40.03;20.95;;;8.00;99.90;;;;;;4914978;29;20958;-84
2022/03/23 00:33:37;;;;;;;38.65;20.80;;;8.00;99.90;;;;;;4908719;29;20494;-85
2022/03/23 00:36:06;;;;;;;41.67;20.77;;;7.90;99.90;;;;;;4901853;29;20048;-84
2022/03/23 00:38:32;;;;;;;39.45;21.13;;;7.90;99.90;;;;;;4894835;29;20045;-84
2022/03/23 00:40:58;;;;;;;41.25;21.92;;;7.90;99.90;;;;;;4883405;29;20052;-84
2022/03/23 00:43:24;;;;;;;35.70;20.52;;;8.50;99.90;;;;;;4877139;29;20056;-83
2022/03/23 00:45:49;;;;;;;41.20;20.77;;;7.80;99.90;;;;;;4913932;29;20052;-84
2022/03/23 00:48:15;;;;;;;42.70;20.65;;;7.70;99.90;;;;;;4888758;29;20071;-84
2022/03/23 00:50:42;;;;;;;43.72;21.30;;;7.70;99.90;;;;;;4896653;29;20565;-84
2022/03/23 00:53:08;;;;;;;44.08;22.80;;;7.70;99.90;;;;;;4880159;29;20104;-84
2022/03/23 00:55:33;;;;;;;;;;;7.70;99.90;;;;;;4904317;29;20452;-84
2022/03/23 00:57:59;;;;;;;39.15;20.20;;;7.70;99.90;;;;;;4898246;29;19923;-84
2022/03/23 01:00:25;;;;;;;40.78;20.70;;;7.60;99.90;;;;;;4893139;29;20048;-84
2022/03/23 01:02:50;;;;;;;39.53;21.00;;;8.00;99.90;;;;;;4898421;29;20079;-84
2022/03/23 01:05:16;;;;;;;40.85;20.80;;;7.60;99.90;;;;;;4873069;29;20123;-84
2022/03/23 01:07:43;;;;;;;40.03;20.17;;;7.70;99.90;;;;;;4880717;29;20052;-84
2022/03/23 01:10:14;;;;;;;35.30;19.73;;;7.50;99.90;;;;;;4891285;29;20044;-84
2022/03/23 01:12:41;;;;;;;37.25;20.45;;;7.40;99.90;;;;;;4910019;29;20058;-84
2022/03/23 01:15:09;;;;;;;37.55;20.27;;;7.80;99.90;;;;;;4882514;29;20055;-84
2022/03/23 01:17:36;;;;;;;37.03;20.48;;;7.30;99.90;;;;;;4875681;29;20164;-84
2022/03/23 01:20:04;;;;;;;39.00;20.35;;;7.70;99.90;;;;;;4879782;29;20084;-84
2022/03/23 01:22:30;;;;;;;35.20;19.27;;;7.30;99.90;;;;;;4890493;29;20467;-84
2022/03/23 01:24:55;;;;;;;44.10;21.42;;;7.20;99.90;;;;;;4894559;29;20143;-84
2022/03/23 01:27:21;;;;;;;42.85;21.55;;;7.20;99.90;;;;;;4888224;29;20048;-84
2022/03/23 01:29:47;;;;;;;44.20;23.02;;;7.20;99.90;;;;;;4883713;29;20059;-83
2022/03/23 01:32:12;;;;;;;47.05;22.15;;;7.70;99.90;;;;;;4880999;29;20060;-84
2022/03/23 01:34:38;;;;;;;42.88;22.23;;;7.10;99.90;;;;;;4899067;29;20056;-84
2022/03/23 01:37:04;;;;;;;48.10;23.00;;;7.70;99.90;;;;;;4898322;29;20410;-83
2022/03/23 01:39:29;;;;;;;46.00;21.70;;;7.10;99.90;;;;;;4890272;29;20060;-84
2022/03/23 01:41:55;;;;;;;47.88;22.42;;;7.10;99.90;;;;;;4877768;29;20048;-85
2022/03/23 01:44:24;;;;;;;44.78;21.75;;;7.20;99.90;;;;;;4873817;29;20044;-84
2022/03/23 01:47:04;;;;;;;43.45;21.80;;;7.20;99.90;;;;;;4900308;29;20048;-84
2022/03/23 01:49:29;;;;;;;40.13;21.48;;;7.20;99.90;;;;;;4908644;29;20040;-84
2022/03/23 01:51:56;;;;;;;43.28;21.90;;;7.20;99.90;;;;;;4910305;29;20055;-84
2022/03/23 01:54:21;;;;;;;42.42;21.08;;;7.20;99.90;;;;;;4882828;29;20542;-84
2022/03/23 01:56:49;;;;;;;45.42;21.25;;;7.20;99.90;;;;;;4895157;29;20052;-84
2022/03/23 01:59:16;;;;;;;44.72;22.23;;;7.50;99.90;;;;;;4913532;29;20060;-84
2022/03/23 02:01:43;;;;;;;41.55;22.02;;;7.10;99.90;;;;;;4897826;29;20430;-83
2022/03/23 02:04:09;;;;;;;44.85;21.70;;;7.90;99.90;;;;;;4897725;29;20482;-84
2022/03/23 02:06:35;;;;;;;41.38;21.25;;;7.10;99.90;;;;;;4893606;29;20058;-83
2022/03/23 02:09:01;;;;;;;;;;;7.00;99.90;;;;;;4897895;29;20569;-84
2022/03/23 02:11:29;;;;;;;47.25;22.20;;;7.00;99.90;;;;;;4864597;29;20289;-83
2022/03/23 02:13:55;;;;;;;42.35;21.52;;;7.00;99.90;;;;;;4891328;29;20057;-86
2022/03/23 02:16:20;;;;;;;40.63;22.40;;;7.00;99.90;;;;;;4859030;29;20582;-84
2022/03/23 02:18:46;;;;;;;52.00;23.58;;;7.00;99.90;;;;;;4897467;29;20134;-84
2022/03/23 02:21:16;;;;;;;46.75;23.17;;;7.10;99.90;;;;;;4897489;29;20274;-84
2022/03/23 02:23:42;;;;;;;44.40;22.45;;;7.00;99.90;;;;;;4906522;29;20108;-84
2022/03/23 02:26:08;;;;;;;;;;;7.30;99.90;;;;;;4878790;29;20074;-84
2022/03/23 02:28:35;;;;;;;47.72;23.67;;;7.00;99.90;;;;;;4847774;29;20344;-83
2022/03/23 02:31:01;;;;;;;45.10;23.60;;;6.90;99.90;;;;;;4877485;29;20048;-85
2022/03/23 02:33:27;;;;;;;48.33;23.35;;;6.90;99.90;;;;;;4888008;29;20100;-84
2022/03/23 02:35:53;;;;;;;;;;;7.00;99.90;;;;;;4909402;29;20157;-84
2022/03/23 02:38:19;;;;;;;52.63;23.65;;;6.90;99.90;;;;;;4905698;29;19927;-84
2022/03/23 02:40:46;;;;;;;46.97;24.23;;;6.90;99.90;;;;;;4886016;29;20512;-83
2022/03/23 02:43:13;;;;;;;49.85;24.65;;;6.80;99.90;;;;;;4893274;29;20056;-83
2022/03/23 02:45:38;;;;;;;54.05;24.33;;;6.80;99.90;;;;;;4899505;29;20375;-83
2022/03/23 02:48:06;;;;;;;47.60;24.17;;;7.00;99.90;;;;;;4893395;29;20060;-83
2022/03/23 02:50:32;;;;;;;50.92;24.70;;;6.70;99.90;;;;;;4879131;29;20049;-84
2022/03/23 03:01:54;;;;;;;49.30;25.02;;;6.30;99.90;;;;;;4912851;29;20064;-84
2022/03/23 03:04:22;;;;;;;59.20;25.20;;;6.20;99.90;;;;;;4903765;29;20524;-83
2022/03/23 03:06:48;;;;;;;53.55;25.08;;;6.20;99.90;;;;;;4883337;29;20048;-84
2022/03/23 03:09:15;;;;;;;;;;;6.20;99.90;;;;;;4905513;29;20150;-83
2022/03/23 03:11:43;;;;;;;51.15;25.92;;;6.20;99.90;;;;;;4896177;29;20384;-84
2022/03/23 03:14:10;;;;;;;49.80;24.27;;;6.20;99.90;;;;;;4896743;29;20063;-83
2022/03/23 03:16:36;;;;;;;51.35;24.75;;;6.30;99.90;;;;;;4908698;29;20414;-83
2022/03/23 03:19:05;;;;;;;49.35;24.50;;;6.30;99.90;;;;;;4896602;29;20052;-84
2022/03/23 03:21:32;;;;;;;47.30;23.13;;;6.20;99.90;;;;;;4907734;29;20402;-83
2022/03/23 03:23:58;;;;;;;44.20;23.77;;;6.20;99.90;;;;;;4897340;29;20048;-84
2022/03/23 03:26:24;;;;;;;48.90;24.55;;;6.80;99.90;;;;;;4888726;29;20055;-84
2022/03/23 03:28:50;;;;;;;47.15;24.33;;;6.30;99.90;;;;;;4862611;29;20059;-83
2022/03/23 03:31:16;;;;;;;;;;;6.30;99.90;;;;;;4871360;29;20052;-83
2022/03/23 03:33:43;;;;;;;47.15;25.17;;;6.30;99.90;;;;;;4893440;29;20388;-83
2022/03/23 03:36:09;;;;;;;51.47;23.48;;;6.20;99.90;;;;;;4905798;29;20059;-83
2022/03/23 03:38:36;;;;;;;53.33;24.13;;;6.20;99.90;;;;;;4891993;29;20529;-83
2022/03/23 03:41:03;;;;;;;45.95;23.75;;;6.10;99.90;;;;;;4895923;29;20040;-84
2022/03/23 03:43:30;;;;;;;48.67;23.60;;;6.30;99.90;;;;;;4890646;29;20051;-83
2022/03/23 03:45:56;;;;;;;49.13;23.98;;;6.10;99.90;;;;;;4901525;29;20156;-83
2022/03/23 03:48:21;;;;;;;49.35;24.35;;;6.10;99.90;;;;;;4871093;29;20123;-83
2022/03/23 03:50:47;;;;;;;45.65;24.80;;;6.00;99.90;;;;;;4863063;29;20136;-83
2022/03/23 03:53:13;;;;;;;45.05;23.38;;;5.90;99.90;;;;;;4877827;29;20045;-83
2022/03/23 03:55:40;;;;;;;46.50;24.35;;;5.90;99.90;;;;;;4895868;29;20066;-83
2022/03/23 03:58:08;;;;;;;48.03;23.40;;;5.80;99.90;;;;;;4911456;29;20048;-84
2022/03/23 04:00:36;;;;;;;47.22;23.17;;;5.80;99.90;;;;;;4892428;29;20514;-83
2022/03/23 04:03:03;;;;;;;48.38;23.90;;;5.70;99.90;;;;;;4896354;29;20130;-84
2022/03/23 04:05:29;;;;;;;47.72;23.02;;;5.70;99.90;;;;;;4907134;29;20056;-83
2022/03/23 04:07:58;;;;;;;45.75;24.05;;;5.60;99.90;;;;;;4882044;29;20623;-84
2022/03/23 04:10:25;;;;;;;47.42;23.98;;;5.70;99.90;;;;;;4872094;29;20386;-83
2022/03/23 04:12:50;;;;;;;50.13;25.13;;;5.60;99.90;;;;;;4895916;29;20083;-83
2022/03/23 04:15:16;;;;;;;48.97;25.10;;;5.60;99.90;;;;;;4889657;29;20554;-83
2022/03/23 04:17:42;;;;;;;52.75;25.15;;;5.70;99.90;;;;;;4896646;29;20095;-83
2022/03/23 04:20:09;;;;;;;44.15;23.10;;;5.70;99.90;;;;;;4881101;29;20048;-83
2022/03/23 04:22:35;;;;;;;48.28;24.48;;;5.60;99.90;;;;;;4876741;29;20179;-84
2022/03/23 04:25:01;;;;;;;53.90;25.73;;;5.50;99.90;;;;;;4884267;29;20102;-83
2022/03/23 04:27:27;;;;;;;55.85;25.60;;;5.40;99.90;;;;;;4892334;29;20143;-83
2022/03/23 04:29:53;;;;;;;56.60;26.63;;;5.40;99.90;;;;;;4915980;29;20103;-83
2022/03/23 04:32:19;;;;;;;53.47;25.10;;;5.40;99.90;;;;;;4907393;29;20115;-83
2022/03/23 04:34:44;;;;;;;49.22;24.95;;;6.00;99.90;;;;;;4900150;29;20067;-83
2022/03/23 04:37:10;;;;;;;56.72;26.13;;;5.30;99.90;;;;;;4883691;29;20058;-83
2022/03/23 04:39:36;;;;;;;53.72;26.45;;;5.40;99.90;;;;;;4879264;29;20596;-83
2022/03/23 04:42:02;;;;;;;56.78;24.98;;;5.40;99.90;;;;;;4883244;29;20051;-83
2022/03/23 04:44:27;;;;;;;51.25;27.27;;;5.40;99.90;;;;;;4909423;29;20795;-83
2022/03/23 04:46:53;;;;;;;54.22;26.92;;;5.40;99.90;;;;;;4899505;29;20048;-83
2022/03/23 04:49:19;;;;;;;52.25;26.10;;;5.40;99.90;;;;;;4892303;29;20048;-83
2022/03/23 04:51:44;;;;;;;56.03;24.92;;;5.30;99.90;;;;;;4912759;29;20134;-83
2022/03/23 04:54:10;;;;;;;51.67;25.15;;;5.30;99.90;;;;;;4895728;29;20132;-83
2022/03/23 04:56:36;;;;;;;52.67;27.08;;;5.30;99.90;;;;;;4875569;29;20056;-83
2022/03/23 04:59:02;;;;;;;52.15;24.67;;;5.30;99.90;;;;;;4880666;29;20467;-83
2022/03/23 05:01:27;;;;;;;50.78;25.65;;;5.20;99.90;;;;;;4874770;29;20133;-83
2022/03/23 05:03:53;;;;;;;52.67;24.75;;;5.10;99.90;;;;;;4865078;29;20044;-83
2022/03/23 05:06:19;;;;;;;58.60;25.98;;;5.10;99.90;;;;;;4857992;29;20103;-84
2022/03/23 05:08:45;;;;;;;52.03;25.33;;;5.30;99.90;;;;;;4893330;29;20056;-83
2022/03/23 05:11:11;;;;;;;60.35;26.67;;;5.10;99.90;;;;;;4910716;29;20052;-83
2022/03/23 05:13:37;;;;;;;58.03;26.70;;;5.10;99.90;;;;;;4890477;29;20045;-83
2022/03/23 05:16:03;;;;;;;54.75;26.00;;;5.60;99.90;;;;;;4896307;29;20052;-83
2022/03/23 05:18:29;;;;;;;51.22;25.88;;;5.00;99.90;;;;;;4889506;29;20060;-83
2022/03/23 05:20:55;;;;;;;52.85;24.92;;;4.80;99.90;;;;;;4911232;29;20530;-83
2022/03/23 05:23:21;;;;;;;55.13;25.98;;;4.70;99.90;;;;;;4895070;29;20135;-83
2022/03/23 05:25:46;;;;;;;56.10;26.08;;;4.90;99.90;;;;;;4864377;29;20049;-83
2022/03/23 05:28:13;;;;;;;53.58;25.35;;;5.00;99.90;;;;;;4886806;29;20044;-84
2022/03/23 05:30:39;;;;;;;53.10;25.23;;;4.90;99.90;;;;;;4865008;29;20048;-83
2022/03/23 05:33:05;;;;;;;55.00;26.33;;;4.90;99.90;;;;;;4894919;29;20095;-83
2022/03/23 05:35:31;;;;;;;54.75;25.95;;;4.90;99.90;;;;;;4865072;29;20616;-84
2022/03/23 05:37:57;;;;;;;55.58;25.58;;;5.10;99.90;;;;;;4898687;29;20060;-84
2022/03/23 05:40:23;;;;;;;52.95;25.13;;;4.80;99.90;;;;;;4891623;29;20063;-84
2022/03/23 05:42:50;;;;;;;56.15;25.95;;;4.90;99.90;;;;;;4889710;29;20506;-83
2022/03/23 05:45:16;;;;;;;59.88;26.33;;;4.80;99.90;;;;;;4882267;29;20199;-84
2022/03/23 05:47:42;;;;;;;53.78;26.20;;;5.30;99.90;;;;;;4913708;29;20560;-84
2022/03/23 05:50:09;;;;;;;51.33;26.48;;;5.10;99.90;;;;;;4914351;29;20063;-83
2022/03/23 05:52:36;;;;;;;52.38;25.20;;;4.80;99.90;;;;;;4903475;29;20159;-82
2022/03/23 05:55:02;;;;;;;53.63;24.27;;;5.20;99.90;;;;;;4895020;29;20402;-82
2022/03/23 05:57:28;;;;;;;;;;;4.80;99.90;;;;;;4863628;29;20438;-82
2022/03/23 05:59:54;;;;;;;49.95;24.90;;;5.10;99.90;;;;;;4879695;29;19927;-82
2022/03/23 06:02:20;;;;;;;48.38;25.35;;;4.40;99.90;;;;;;4856966;29;20048;-83
2022/03/23 06:04:46;;;;;;;53.28;26.42;;;5.60;99.90;;;;;;4854112;29;20062;-83
2022/03/23 06:07:12;;;;;;;55.78;27.60;;;5.70;99.90;;;;;;4898601;29;20107;-83
2022/03/23 06:09:38;;;;;;;57.83;26.55;;;5.80;99.90;;;;;;4894918;29;20127;-84
2022/03/23 06:12:05;;;;;;;56.92;27.40;;;4.90;99.90;;;;;;4878891;29;20529;-84
2022/03/23 06:14:32;;;;;;;54.55;26.63;;;5.00;99.90;;;;;;4874274;29;20132;-84
2022/03/23 06:16:58;;;;;;;51.75;26.08;;;4.50;99.90;;;;;;4895261;29;20049;-84
2022/03/23 06:19:24;;;;;;;53.30;25.40;;;5.20;99.90;;;;;;4888443;29;20052;-84
2022/03/23 06:21:49;;;;;;;54.50;27.33;;;5.30;99.90;;;;;;4895117;29;20048;-84
2022/03/23 06:24:15;;;;;;;59.75;26.42;;;6.10;99.90;;;;;;4865163;29;20040;-84
2022/03/23 06:26:41;;;;;;;52.88;26.05;;;5.40;99.90;;;;;;4894279;29;20051;-84
2022/03/23 06:29:07;;;;;;;55.20;26.42;;;6.00;99.90;;;;;;4898286;29;20477;-84
2022/03/23 06:31:32;;;;;;;52.45;26.65;;;6.40;99.90;;;;;;4892885;29;20048;-85
2022/03/23 06:33:59;;;;;;;53.05;26.25;;;6.70;99.90;;;;;;4912968;29;20063;-84
2022/03/23 06:36:25;;;;;;;50.75;25.77;;;5.20;99.90;;;;;;4861313;29;20106;-84
2022/03/23 06:38:51;;;;;;;50.97;25.83;;;6.10;99.90;;;;;;4898482;29;20131;-84
2022/03/23 06:41:17;;;;;;;53.25;26.35;;;5.90;99.90;;;;;;4891450;29;20134;-85
2022/03/23 06:43:43;;;;;;;50.83;26.25;;;5.70;99.90;;;;;;4881943;29;20048;-86
2022/03/23 06:46:09;;;;;;;60.88;25.73;;;5.60;99.90;;;;;;4897427;29;20113;-86
2022/03/23 06:48:35;;;;;;;57.72;27.15;;;6.10;99.90;;;;;;4874702;29;20104;-86
2022/03/23 06:51:01;;;;;;;49.28;24.30;;;6.80;99.90;;;;;;4896057;29;20084;-86
2022/03/23 06:53:26;;;;;;;50.88;26.70;;;5.90;99.90;;;;;;4873996;29;20099;-86
2022/03/23 06:55:52;;;;;;;52.30;27.10;;;6.00;99.90;;;;;;4880333;29;20063;-87
2022/03/23 06:58:18;;;;;;;52.88;27.38;;;6.10;99.90;;;;;;4873267;29;20048;-86
2022/03/23 07:00:44;;;;;;;51.92;26.92;;;6.60;99.90;;;;;;4864196;29;20049;-86
2022/03/23 07:03:10;;;;;;;55.50;27.20;;;6.10;99.90;;;;;;4895620;29;20059;-87
2022/03/23 07:05:36;;;;;;;52.35;27.35;;;6.30;99.90;;;;;;4859815;29;20087;-87
2022/03/23 07:10:47;;;;;;;44.95;23.25;;;6.40;99.90;;;;;;4905526;29;20134;-87
2022/03/23 07:13:16;;;;;;;43.60;21.52;;;6.70;99.90;;;;;;4898700;29;20135;-87
2022/03/23 07:15:46;;;;;;;43.90;20.77;;;6.60;99.90;;;;;;4884049;29;20921;-87
2022/03/23 07:18:13;;;;;;;35.78;18.98;;;6.80;99.90;;;;;;4905981;29;20052;-87
2022/03/23 07:20:39;;;;;;;40.20;21.20;;;7.00;99.90;;;;;;4896585;29;20459;-87
2022/03/23 07:23:05;;;;;;;41.65;21.27;;;7.10;99.90;;;;;;4850492;29;20048;-88
2022/03/23 07:25:30;;;;;;;39.42;20.58;;;7.20;99.90;;;;;;4875775;29;20056;-88
2022/03/23 07:27:56;;;;;;;35.65;20.38;;;7.50;99.90;;;;;;4880933;29;20469;-87
2022/03/23 07:30:23;;;;;;;40.47;19.35;;;7.50;99.90;;;;;;4896440;29;20049;-88
2022/03/23 07:32:51;;;;;;;38.75;19.02;;;7.20;99.90;;;;;;4877052;29;20558;-88
2022/03/23 07:35:17;;;;;;;33.92;19.27;;;7.60;99.90;;;;;;4906112;29;20498;-86
2022/03/23 07:37:43;;;;;;;33.53;17.85;;;7.70;99.90;;;;;;4914762;29;20401;-87
2022/03/23 07:40:09;;;;;;;40.53;18.25;;;8.10;99.90;;;;;;4915216;29;20081;-87
2022/03/23 07:42:35;;;;;;;32.85;17.77;;;7.90;99.90;;;;;;4892593;29;20525;-87
2022/03/23 07:45:00;;;;;;;33.88;17.55;;;8.20;99.90;;;;;;4884698;29;20060;-88
2022/03/23 07:47:26;;;;;;;31.30;17.75;;;8.20;99.90;;;;;;4897260;29;20127;-89
2022/03/23 07:49:52;;;;;;;33.63;16.88;;;8.10;99.90;;;;;;4899740;29;20494;-87
2022/03/23 07:52:18;;;;;;;35.28;17.45;;;8.40;99.90;;;;;;4877384;29;20040;-87
2022/03/23 07:54:44;;;;;;;33.15;17.30;;;8.60;99.90;;;;;;4884495;29;20390;-88
2022/03/23 07:57:10;;;;;;;37.75;17.65;;;8.70;99.90;;;;;;4902729;29;20074;-88
2022/03/23 07:59:36;;;;;;;34.90;18.63;;;8.90;99.90;;;;;;4871157;29;20553;-88
2022/03/23 08:02:02;;;;;;;36.03;18.00;;;8.70;99.90;;;;;;4906767;29;20048;-87
2022/03/23 08:04:27;;;;;;;34.30;17.38;;;8.80;99.90;;;;;;4894062;29;20080;-88
2022/03/23 08:06:53;;;;;;;30.70;17.02;;;8.90;99.90;;;;;;4867937;29;20080;-86
2022/03/23 08:09:19;;;;;;;32.78;16.80;;;9.20;99.90;;;;;;4892278;29;20041;-87
2022/03/23 08:12:05;;;;;;;30.15;16.33;;;9.00;99.90;;;;;;4883245;29;20124;-89
2022/03/23 08:14:31;;;;;;;31.27;16.70;;;9.10;99.90;;;;;;4898809;29;20053;-89
2022/03/23 08:16:57;;;;;;;31.05;15.95;;;9.30;99.90;;;;;;4899389;29;20120;-88
2022/03/23 08:19:23;;;;;;;30.67;17.55;;;9.40;99.90;;;;;;4878854;29;20099;-86
2022/03/23 08:21:52;;;;;;;27.60;16.10;;;9.60;99.90;;;;;;4905282;29;20051;-87
2022/03/23 08:24:18;;;;;;;26.13;16.38;;;9.30;99.90;;;;;;4897549;29;20056;-87
2022/03/23 08:26:45;;;;;;;29.27;16.85;;;9.50;99.60;;;;;;4907929;29;20105;-87
2022/03/23 08:29:10;;;;;;;26.27;14.48;;;9.50;98.00;;;;;;4887708;29;20054;-87
2022/03/23 08:31:36;;;;;;;27.58;15.07;;;9.60;97.70;;;;;;4877938;29;20040;-87
2022/03/23 08:34:04;;;;;;;27.40;15.73;;;9.80;96.00;;;;;;4895957;29;20044;-87
2022/03/23 08:36:31;;;;;;;27.58;16.63;;;9.90;95.30;;;;;;4901332;29;20071;-87
2022/03/23 08:38:57;;;;;;;26.95;15.20;;;10.00;94.40;;;;;;4908083;29;20048;-87
2022/03/23 08:41:23;;;;;;;28.27;15.25;;;10.10;94.00;;;;;;4889830;29;20057;-87
2022/03/23 08:43:48;;;;;;;25.75;14.90;;;10.30;93.40;;;;;;4909355;29;20111;-86
2022/03/23 08:46:14;;;;;;;26.83;15.95;;;10.30;92.80;;;;;;4883681;29;20087;-86
2022/03/23 08:48:41;;;;;;;28.13;15.48;;;10.40;92.20;;;;;;4905893;29;20048;-88
2022/03/23 08:51:06;;;;;;;;;;;10.50;91.40;;;;;;4901926;29;20112;-86
2022/03/23 08:53:32;;;;;;;24.95;14.63;;;10.70;90.40;;;;;;4912187;29;19926;-86
2022/03/23 08:56:01;;;;;;;23.70;15.20;;;10.80;90.80;;;;;;4916667;29;20207;-87
2022/03/23 08:58:26;;;;;;;24.38;15.35;;;10.90;89.40;;;;;;4895182;29;20664;-85
2022/03/23 09:00:52;;;;;;;22.40;15.05;;;11.00;86.90;;;;;;4916479;29;20051;-83
2022/03/23 09:03:18;;;;;;;25.52;14.38;;;11.10;84.10;;;;;;4902447;29;20520;-87
2022/03/23 09:05:44;;;;;;;25.42;14.63;;;11.20;83.20;;;;;;4907558;29;20490;-88
2022/03/23 09:08:10;;;;;;;24.50;14.77;;;11.30;81.50;;;;;;4894155;29;20047;-88
2022/03/23 09:10:36;;;;;;;22.90;14.40;;;11.40;80.20;;;;;;4884191;29;20052;-89
2022/03/23 09:13:01;;;;;;;26.17;14.25;;;11.40;79.00;;;;;;4915297;29;20052;-87
2022/03/23 09:15:27;;;;;;;28.67;14.50;;;11.50;77.30;;;;;;4896341;29;20454;-88
2022/03/23 09:17:59;;;;;;;22.58;13.45;;;11.70;75.20;;;;;;4912335;29;20052;-88
2022/03/23 09:20:25;;;;;;;25.88;14.43;;;11.60;73.90;;;;;;4891794;29;20060;-85
2022/03/23 09:22:52;;;;;;;22.85;14.27;;;11.70;73.80;;;;;;4896567;29;20063;-82
2022/03/23 09:25:19;;;;;;;27.90;14.35;;;11.80;74.00;;;;;;4886512;29;20056;-85
2022/03/23 09:27:44;;;;;;;21.98;13.20;;;11.90;73.50;;;;;;4907012;29;20066;-88
2022/03/23 09:30:13;;;;;;;23.63;13.85;;;12.00;72.40;;;;;;4906226;29;20045;-91
2022/03/23 09:32:41;;;;;;;26.45;14.18;;;12.10;71.00;;;;;;4899283;29;20418;-81
2022/03/23 09:35:08;;;;;;;25.30;13.77;;;12.10;70.20;;;;;;4906153;29;20139;-83
2022/03/23 09:37:49;;;;;;;22.52;13.07;;;12.30;69.50;;;;;;4897009;29;20056;-80
2022/03/23 09:40:25;;;;;;;26.40;14.27;;;12.30;69.40;;;;;;4888378;29;20052;-87
2022/03/23 09:42:56;;;;;;;19.40;12.90;;;12.40;67.80;;;;;;4894845;29;20054;-86
2022/03/23 09:48:06;;;;;;;22.70;13.57;;;12.70;65.60;;;;;;4903650;29;20056;-78
2022/03/23 09:50:33;;;;;;;23.63;14.13;;;12.80;65.00;;;;;;4899145;29;20060;-78
2022/03/23 09:52:59;;;;;;;21.67;13.60;;;12.90;64.90;;;;;;4903063;29;20068;-90
2022/03/23 09:55:26;;;;;;;22.70;13.32;;;13.00;65.10;;;;;;4868980;29;20087;-86
2022/03/23 09:57:58;;;;;;;;;;;13.10;64.50;;;;;;4907343;29;20048;-89
2022/03/23 10:00:28;;;;;;;24.33;13.43;;;13.20;64.30;;;;;;4894598;29;20030;-83
2022/03/23 10:02:57;;;;;;;24.20;14.10;;;13.30;64.90;;;;;;4903765;29;20067;-84
2022/03/23 10:05:42;;;;;;;20.15;12.63;;;13.40;65.00;;;;;;4896645;29;20056;-83
2022/03/23 10:08:11;;;;;;;21.90;13.13;;;13.50;64.70;;;;;;4884075;29;20509;-81
2022/03/23 10:11:04;;;;;;;23.85;12.90;;;13.60;62.90;;;;;;4896026;29;20044;-78
2022/03/23 10:13:54;;;;;;;19.35;11.68;;;13.70;61.50;;;;;;4902960;29;20168;-78
2022/03/23 10:16:48;;;;;;;23.48;12.95;;;13.80;58.10;;;;;;4887981;29;20060;-75
2022/03/23 10:19:13;;;;;;;19.33;12.73;;;13.70;60.30;;;;;;4894958;29;20127;-76
2022/03/23 10:21:39;;;;;;;19.88;12.98;;;14.00;60.50;;;;;;4894365;29;20055;-75
2022/03/23 10:24:05;;;;;;;20.05;13.10;;;14.10;60.80;;;;;;4888431;29;20113;-75
2022/03/23 10:26:33;;;;;;;21.27;12.93;;;14.20;60.10;;;;;;4873764;29;20064;-75
2022/03/23 10:28:59;;;;;;;20.27;12.27;;;14.30;60.40;;;;;;4893700;29;20759;-75
2022/03/23 10:31:27;;;;;;;21.90;12.45;;;14.40;60.00;;;;;;4888720;29;20064;-75
2022/03/23 10:33:57;;;;;;;20.38;13.07;;;14.40;59.40;;;;;;4893064;29;20064;-75
2022/03/23 10:36:27;;;;;;;22.10;13.05;;;14.50;59.40;;;;;;4875089;29;20083;-75
2022/03/23 10:39:04;;;;;;;19.92;12.68;;;14.60;58.70;;;;;;4887527;29;20083;-75
2022/03/23 10:41:30;;;;;;;20.83;11.95;;;14.70;58.00;;;;;;4890849;29;20052;-76
2022/03/23 10:43:57;;;;;;;25.65;12.95;;;14.80;58.40;;;;;;4911975;29;20110;-75
2022/03/23 10:46:23;;;;;;;21.85;12.90;;;14.90;58.70;;;;;;4891276;29;20052;-74
2022/03/23 10:48:51;;;;;;;;;;;15.00;58.50;;;;;;4912296;29;20044;-74
2022/03/23 10:51:26;;;;;;;22.70;11.95;;;15.10;57.70;;;;;;4906078;29;20010;-75
2022/03/23 10:53:52;;;;;;;23.38;12.30;;;15.20;58.50;;;;;;4912607;29;20650;-74
2022/03/23 10:56:31;;;;;;;21.85;11.73;;;15.30;58.00;;;;;;4874713;29;20055;-74
2022/03/23 10:59:25;;;;;;;19.92;12.52;;;15.30;57.30;;;;;;4907848;29;20090;-74
2022/03/23 11:01:57;;;;;;;20.48;12.90;;;15.50;57.80;;;;;;4891169;29;20083;-76
2022/03/23 11:04:28;;;;;;;20.92;12.95;;;15.60;58.30;;;;;;4888250;29;20060;-74
2022/03/23 11:06:54;;;;;;;22.95;12.40;;;15.70;58.00;;;;;;4864079;29;20069;-74
2022/03/23 11:18:11;;;;;;;25.65;13.23;;;16.10;56.80;;;;;;4909228;29;20056;-74
2022/03/23 11:20:48;;;;;;;17.70;12.02;;;16.20;57.70;;;;;;4911524;29;20139;-74
2022/03/23 11:23:30;;;;;;;24.80;12.65;;;16.30;56.40;;;;;;4896198;29;20505;-75
2022/03/23 11:26:02;;;;;;;17.85;10.65;;;16.30;56.40;;;;;;4915919;29;20055;-76
2022/03/23 11:28:34;;;;;;;21.30;10.82;;;16.50;55.10;;;;;;4910429;29;20060;-75
2022/03/23 11:31:05;;;;;;;19.90;11.15;;;16.70;53.70;;;;;;4916456;29;20046;-75
2022/03/23 11:33:35;;;;;;;19.02;11.05;;;16.80;54.60;;;;;;4910270;29;20059;-76
2022/03/23 11:36:10;;;;;;;21.48;11.75;;;16.80;54.70;;;;;;4916186;29;20115;-75
2022/03/23 11:38:37;;;;;;;17.02;10.80;;;16.90;53.20;;;;;;4911506;29;20099;-74
2022/03/23 11:41:05;;;;;;;15.82;10.43;;;17.10;52.80;;;;;;4916848;29;20048;-73
2022/03/23 11:43:34;;;;;;;22.90;11.10;;;17.20;51.20;;;;;;4910169;29;20056;-72
2022/03/23 11:46:01;;;;;;;23.20;10.77;;;17.40;51.70;;;;;;4900477;29;20094;-73
2022/03/23 11:48:40;;;;;;;20.30;10.60;;;17.60;51.70;;;;;;4910195;29;20052;-73
2022/03/23 11:51:21;;;;;;;19.55;11.55;;;17.80;51.60;;;;;;4897387;29;20049;-73
2022/03/23 11:54:25;;;;;;;16.60;10.80;;;18.10;51.40;;;;;;4912750;29;20144;-72
2022/03/23 11:56:56;;;;;;;17.83;11.02;;;18.30;51.00;;;;;;4881902;29;20516;-76
2022/03/23 11:59:29;;;;;;;18.20;10.27;;;18.50;50.50;;;;;;4909608;29;20051;-73
2022/03/23 12:01:56;;;;;;;19.88;11.35;;;18.80;51.40;;;;;;4915465;29;20146;-74
2022/03/23 12:04:28;;;;;;;19.55;9.52;;;19.10;51.00;;;;;;4909897;29;20188;-73
2022/03/23 12:07:08;;;;;;;15.85;9.40;;;19.40;50.10;;;;;;4915537;29;20511;-72
2022/03/23 12:09:35;;;;;;;20.55;9.20;;;19.60;49.10;;;;;;4909428;29;20051;-73
2022/03/23 12:12:10;;;;;;;23.13;9.82;;;19.90;50.50;;;;;;4905101;29;20044;-73
2022/03/23 12:14:37;;;;;;;19.85;9.35;;;20.10;50.30;;;;;;4895523;29;20063;-73
2022/03/23 12:17:10;;;;;;;16.10;8.50;;;20.40;49.20;;;;;;4915225;29;20059;-74
2022/03/23 12:19:53;;;;;;;17.95;8.13;;;20.60;48.00;;;;;;4908946;29;20055;-73
2022/03/23 12:22:31;;;;;;;18.98;7.18;;;20.80;46.10;;;;;;4903477;29;20204;-75
2022/03/23 12:25:09;;;;;;;16.42;7.80;;;20.90;46.00;;;;;;4887738;29;20048;-75
2022/03/23 12:27:42;;;;;;;17.55;8.73;;;21.10;45.50;;;;;;4902239;29;20056;-80
2022/03/23 12:30:35;;;;;;;14.68;7.60;;;21.20;46.30;;;;;;4882526;29;20083;-76
2022/03/23 12:33:10;;;;;;;18.35;8.73;;;21.40;44.40;;;;;;4893595;29;20147;-76
2022/03/23 12:35:36;;;;;;;22.23;7.90;;;21.50;44.10;;;;;;4911167;29;20059;-76
2022/03/23 12:38:03;;;;;;;20.98;8.77;;;21.60;44.20;;;;;;4914619;29;20414;-75
2022/03/23 12:40:43;;;;;;;15.65;8.23;;;21.60;42.90;;;;;;4897497;29;20048;-76
2022/03/23 12:43:09;;;;;;;19.73;8.60;;;21.60;43.10;;;;;;4894859;29;20048;-76
2022/03/23 12:45:39;;;;;;;20.65;8.98;;;21.80;44.20;;;;;;4892117;29;21029;-75
2022/03/23 12:57:49;;;;;;;15.25;8.77;;;22.00;43.80;;;;;;4910891;29;20048;-76
2022/03/23 12:59:17;;;;;;;18.55;9.13;;;22.90;42.20;;;;;;4912389;29;20518;-76
2022/03/23 13:01:44;;;;;;;19.85;8.90;;;23.20;42.40;;;;;;4900215;29;20064;-76
2022/03/23 13:04:44;;;;;;;16.50;8.55;;;23.40;41.90;;;;;;4913547;29;20410;-77
2022/03/23 13:07:28;;;;;;;17.95;8.07;;;23.70;41.20;;;;;;4905329;29;20505;-76
2022/03/23 13:10:06;;;;;;;15.38;8.50;;;23.80;40.60;;;;;;4893243;29;20041;-79
2022/03/23 13:12:31;;;;;;;19.58;9.90;;;23.90;39.90;;;;;;4889601;29;20084;-76
2022/03/23 13:14:58;;;;;;;22.70;9.40;;;24.20;41.10;;;;;;4895951;29;20094;-76